Organisateur, détaillez votre épreuve !!!
Inscrivez-vous en ligne !!!
INSCRIVEZ VOUS ET PAYEZ EN LIGNE Engagé(e)s*
Nom de la course Lieu Insc Date Officiel Internet
La Gambade Escalaise L.Escale Dim 29/09
La Foulée Martégale Martigues Dim 13/10
Course du Bout du Monde Bormes les M. Dim 27/10
Course des Iles du Frioul Marseille Ven 01/11
Escapade d'Ensuès Ensuès La Redonne Dim 03/11
Trail La Campsoise Camps la Source Sam 09/11
Traversée du Gardéou Rognac Dim 10/11
La Blade Run 2019 Bouc Bel Air Sam 16/11
Officiel = MAJ manuelle, courrier+web - Internet = MAJ automatique, dès constatation des inscriptions web

Nous rappelons aux licencié(e)s FFTRI, FFCO ou FFPM que vos licences ne sont plus acceptées par la FFA depuis le 1er Janvier 2019, malgré les dernières annotations rajoutées sur celles-ci. Il est donc expressément recommandé de présenter un certificat médical d’absence de contre-indication à la pratique du sport en compétition ou de l’Athlétisme en compétition ou de la course à pied en compétition, datant de moins d'un an à la date de la compétition.
Merci pour votre compréhension !!!

Accueil Courir en France
Pour obtenir un devis, cliquez ici !!!

Classement Général au Scratch

Utilisez ce formulaire pour calculer votre vitesse
Les décimales, doivent toujours être séparées par un POINT

Distance

Heures

Minutes

Secondes

Km/h

Imprimez votre diplôme !!!
Epreuve chronométrée par courirenfrance
Toute reproduction intégrale ou partielle sans le consentement préalable de courirenfrance serait illicite et constituerait une contrefaçon sanctionnée par la loi en vigueur propre au code de la propriété intellectuelle.
Classement des 7.8 Km
Région ou Ville Distance Nom de l'Epreuve Date Rentrants
Istres - [13] 10.7 Km 20e Tour de l.Olivier 11/09/2016 988
Pl Nom Prénom Doss. Cat. Club Temps
301 LETOURNEUR PHILIPPE 391 M1M 79  FOS SUR MER 0:53:13
302 COMBES CORINNE 154 M2F 3  ISTRES SPORT TRIATH 0:53:15
303 SALINGUE BERTRAND 568 SEM 119  CHATEAUNEUF LES M 0:53:16
304 TONNA JACQUES 617 SEM 120  FOS SUR MER 0:53:18
305 DESSAUD HERVE 712 M1M 80  SPORT 2000 0:53:19
306 BOUCENNA YAYATO 80 M2M 48  ISTRES JUDO 0:53:21
307 CLAUDE LAURENT 961 M1M 81  INDIVIDUEL 0:53:22
308 ADAM BRIGITTE 1 M2F 4  AA ALLAUDIENNE 0:53:23
309 CHAPON FABIEN 844 SEM 121  GMPA TEAM 0:53:25
310 CIMA CYRIL 713 SEM 122  SPORT 2000 0:53:27
311 MARCONNET ROBERT 419 M3M 15  CSP CG 13 0:53:29
312 RAVASSON SYLVIE 531 M2F 5  SLC MARTIGUES 0:53:31
313 CHARVET PIERRE 140 SEM 123  ST CHAMAS 0:53:33
314 LACLUQUE FLAVIEN 915 CAM 5  ISTRES 0:53:34
315 PERROT GILDAS 682 M1M 82  LECLERC ISTRES 0:53:35
316 NAUDY VALENTIN 1092 ESM 10  MARTIGUES 0:53:37
317 LEFEBVRE AUDREY 691 SEF 9  VJA 0:53:37
318 VINCENT KARINE 976 M1F 5  AIL ROUSSET 0:53:40
319 ARNAUD CHRISTOPHE 1111 M1M 83  COURIR A SAUSSET 0:53:42
320 APPERCEL ROGER 18 M3M 16  COURIR AU ROVE 0:53:44
321 HASNI MOHAMED ADEL 322 SEM 124  GARDANNE 0:53:46
322 BLARD MICKAEL 70 SEM 125  ISTRES 0:53:47
323 DURIEUX GERALD 217 M1M 84  FOS SUR MER 0:53:49
324 BOYER GILBERT 1110 M2M 49  SC ARLES 0:53:51
325 LODICO STEPHANE 397 SEM 126  MARTIGUES 0:53:52
326 SALESE LOIC 567 SEM 127  ISTRES 0:53:54
327 LELONG NICOLAS 387 SEM 128  ISTRES 0:53:54
328 RIGOLIO OLIVIER 540 M1M 85  ST MARTIN DE CRAU 0:53:56
329 DINAR KAMEL 199 SEM 129  GARDANNE 0:53:57
330 OBRE FREDERIC 474 M1M 86  MARSEILLE 0:53:58
331 MASMEJEAN JEAN-MARC 424 M2M 50  ISTRES 0:53:59
332 NEYRON DAVID 467 M1M 87  FOS SUR MER 0:54:01
333 IBANEZ GUILLAUME 746 SEM 130  ISTRES 0:54:02
334 LE NAOUR FREDERIC 381 M2M 51  JOGG CLUB MARTIGUES 0:54:03
335 SIAHAAN TIFFANY 924 SEF 10  MARSEILLE 0:54:05
336 STEFANELLI BRIGITTE 599 M2F 6  FOS OLYMPIQUE CLUB 0:54:06
337 HUGUES ALEXANDRA 331 SEF 11  PORT DE BOUC 0:54:09
338 SMIERCHALSKI GILLES 694 M3M 17  VJA 0:54:10
339 GRISO STYVE 721 M1M 88  ISTRES 0:54:11
340 MORNAS ANTHONY 455 SEM 131  CHATEAUNEUF LES M 0:54:12
341 PEYRE CYRIL 932 M1M 89  ISTRES 0:54:13
342 IMBERTESCHE MORGANE 705 ESF 2  GEANT CASINO ISTRES 0:54:14
343 DEPINOU THOMAS 769 CAM 6  ISTRES SPORT ATHLE 0:54:16
344 TEISSIER CHRISTIAN 605 M1M 90  RUN CLUB BOUILLARGUES 0:54:16
345 MOLINARI JEROME 445 SEM 132  PORT ST LOUIS DU R 0:54:20
346 GALLINE CYRIL 264 SEM 133  MIRAMAS 0:54:20
347 BENS JEAN-PAUL 55 M1M 91  OMCA ATHLETISME 0:54:22
348 CAUDRELIER ALAIN 132 M2M 52  LA BOUILLADISSE 0:54:23
349 GARCIA SERGE 267 M2M 53  FOS SUR MER 0:54:24
350 CELENTANO 922 M3M 18  COURIR A SAUSSET 0:54:25
351 CLAIREFOND ROBIN 146 SEM 134  ARLES 0:54:26
352 DESPAQUIS LAURENT 193 M1M 92  SLC MARTIGUES 0:54:27
353 VENEL ALAIN 642 M2M 54  MPT ISTRES 0:54:28
354 COULON CELINE 952 SEF 12  AIX EN PROVENCE 0:54:30
355 PEZET STEPHANE 499 M1M 93  A VOS BASKETS ISTRES 0:54:31
356 DEHE FREDERIC 868 M1M 94  ISTRES 0:54:32
357 HRAGUA MYRIAM 330 SEF 13  TEAM PCE ENDURANCE 0:54:34
358 MEZHOUD ALFRED 438 M1M 95  CHATEAUNEUF LE RGE 0:54:37
359 RUBIO VINCENT 560 SEM 135  ISTRES 0:54:38
360 JAUMONET STEPHANE 346 M1M 96  SLC MARTIGUES CE ASCO 0:54:39
361 CHOLLET GUILLAUME 678 M2M 55  LECLERC ISTRES 0:54:41
362 PIED MARC 798 M3M 19  ISTRES 0:54:42
363 MAUROY YANN 934 M1M 97  FOS SUR MER 0:54:43
364 CAILLER LIONEL 108 M1M 98  FOS SUR MER 0:54:45
365 FONTAINE THIBAULT 250 M1M 99  A VOS BASKETS ISTRES 0:54:46
366 FERRATO LAURENCE 944 M1F 6  SLC MARTIGUES 0:54:47
367 ANGUILLE NICOLAS 14 SEM 136  MARSEILLE 0:54:48
368 RENARD SEBASTIEN 535 SEM 137  SLC MARTIGUES 0:54:49
369 PONSOT SYLVIE 515 M2F 7  AIL ROUSSET 0:54:50
370 BERNARDI FREDERIC 62 SEM 138  GARDANNE 0:54:51
371 ZECHMANN ERIC 744 M2M 56  ORANGE 0:54:53
372 LEBRIER-NASRI LAURENCE 823 M1F 7  MARSEILLE 0:54:56
373 BOUISSOU JULIETTE 82 SEF 14  MARSEILLE 0:54:58
374 ORTEGA CEDRIC 477 SEM 139  MIRAMAS 0:54:59
375 TRETOLA JESSYCA 622 SEF 15  MARSEILLE 0:55:03
376 BALLESTER CARMEN 38 M1F 8  ASS MULTIS MONTREDON 0:55:06
377 DELANZUN FABRICE 1150 SEM 140  INDIVIDUEL 0:55:11
378 PEREZ JEAN-LOUIS 495 M1M 100  A VOS BASKETS ISTRES 0:55:14
379 PIOZIN DANIEL 505 M2M 57  CHRONO LIBRE 0:55:16
380 COMPAGNONE SERGE 155 M2M 58  MARIGNANE 0:55:16
381 BOYER FRED 762 SEM 141  POMPIERS ISTRES 0:55:18
382 BOURINET VALERIAN 3161 SEM 142  BOUC BEL AIR 0:55:22
383 DROULHET LAURENT 1167 M1M 101  SALON DE PROVENCE 0:55:23
384 VALLOIS BENJAMIN 839 SEM 143  ISTRES 0:55:24
385 LAGUERRE OLIVIER 364 M1M 102  ISTRES 0:55:26
386 MORO JEAN-MARC 456 M2M 59  AC MIRAMAS 0:55:31
387 FERRER VALLS STEPHANE 241 M1M 103  ISTRES 0:55:33
388 ARNAUD CHRISTIAN 685 M2M 60  VJA 0:55:34
389 LOPEZ LIONEL 402 SEM 144  VITROLLES 0:55:37
390 TEYCHENE AMELIE 610 ESF 3  MARTIGUES SPORT ATHLE 0:55:40
391 LINARELLO THIERRY 394 M1M 104  SAUSSET LES PINS 0:55:41
392 GIRAUD CALIXTE 287 M1M 105  ISTRES 0:55:43
393 THILLARD JONATHAN 614 SEM 145  MARTIGUES 0:55:44
394 VINCENT ERIC 652 M2M 61  JOGG CLUB MARTIGUES 0:55:46
395 RICHIARDI NICOLAS 1117 SEM 146  ISTRES 0:55:48
396 PARRA CHRISTOPHE 1145 SEM 147  FOS OLYMPIC CLUB 0:55:50
397 VACHEROT BORIS 629 SEM 148  PORT DE BOUC 0:55:52
398 DUCHESNE STEPHANIE 213 M1F 9  FOS SUR MER 0:55:54
399 STEC MICHAEL 837 SEM 149  ISTRES 0:55:57
400 PERES MARC 493 M3M 20  AIL ROUSSET 0:55:58
401 MALARDE YOANN 892 SEM 150  MARIGNANE 0:56:01
402 ROUX SEBASTIEN 559 M1M 106  COURIR A SAUSSET 0:56:02
403 FLORENS GILLES 248 M1M 107  ST CHAMAS 0:56:04
404 RONCHAIL ROBERT 552 M3M 21  CHRONO LIBRE 0:56:05
405 LOTA-ZUNINO ISABELLE 692 M2F 8  VJA 0:56:06
406 HUSS SUZANNE 990 M1F 10  COURIR A SAUSSET 0:56:07
407 HARBOURG GUILLAUME 704 SEM 151  GEANT CASINO ISTRES 0:56:08
408 GINESTE JEAN PAUL 285 M3M 22  NIMES MARATHON 0:56:10
409 CUADRO BERTRAND 740 M1M 108  ISTRES 0:56:11
410 MASSON JONATHAN 776 SEM 152  ISTRES 0:56:12
411 LE FLOCH LOIC 378 SEM 153  ISTRES 0:56:14
412 RIEM PATRICK 539 M2M 62  A VOS BASKETS ISTRES 0:56:16
413 ORTIN CHRISTOPHE 478 M1M 109  MIRAMAS 0:56:17
414 TEILLET OLIVIER 604 M1M 110  PEYPIN 0:56:19
415 GONZALEZ ANDRE 293 M2M 63  CSP CG 13 0:56:21
416 VENTURA ADRIEN 790 SEM 154  ISTRES 0:56:21
417 MARTINEZ CHRISTIAN 2652 M1M 111  ISTRES 0:56:23
418 LABAT ROBERT 756 M3M 23  BEAUMONT ATHLE CLUB 0:56:24
419 SEMPE PIERRE 836 SEM 155  A VOS BASKETS ISTRES 0:56:26
420 BURGERELLA JOSEPH 102 M3M 24  ATSCAF ST VICTORET 0:56:26
421 DEBUCHY LAURENCE 183 M1F 11  ISTRES 0:56:27
422 DUCOULET STEPHANE 956 M1M 112  FOS SUR MER 0:56:29
423 CALLANDRET GUILLAUME 834 SEM 156  ISTRES 0:56:30
424 PONCET MARC 513 M2M 64  LYONDELL SPORT LOISIR 0:56:31
425 AUFRERE ISABELLE 28 M2F 9  BELCODENE 0:56:32
426 QUIN PASCAL 683 M2M 65  LECLERC ISTRES 0:56:33
427 BAUCHIERO SANDRA 919 SEF 16  COURIR A SAUSSET 0:56:34
428 GIL JEAN PIERRE 957 M2M 66  COURIR A SAUSSET 0:56:36
429 REBOUL GERARD 532 M2M 67  FOULEE DU CHASSELAS 0:56:37
430 DELAUNAY NICOLAS 188 SEM 157  LE THOR 0:56:39
431 PLAZA ERIC 675 M1M 113  FREE NESS 0:56:40
432 JOUVENEL JEAN CLAUDE 350 M1M 114  A VOS BASKETS ISTRES 0:56:42
433 COURT CHRISTOPHE 995 M1M 115  ST CHAMAS 0:56:43
434 POVEDA ERIC 521 M2M 68  PORT DE BOUC 0:56:45
435 ARGIN BILAL 21 SEM 158  POURRIERES 0:56:47
436 PLANELLES JOCELYN 506 M1M 116  ISTRES 0:56:48
437 VIVIER SEBASTIEN 947 SEM 159  ISTRES 0:56:50
438 NOTEBAERT SERGE 472 M4M 1  AC ST REMY 0:56:51
439 ROOS DOMINIQUE 553 M1M 117  A VOS BASKETS ISTRES 0:56:54
440 JAUBERT JULIEN 344 SEM 160  ISTRES 0:56:55
441 GARREAU PAULINE 748 SEF 17  ISTRES 0:56:56
442 JAMONET LAURENT 963 SEM 161  LA FARE LES OLIVIERS 0:56:57
443 FERRY BRUNO 244 M2M 69  ISTRES 0:56:58
444 MOURCIA REMI 693 M2M 70  VJA 0:56:59
445 CAILLAULT CHRISTOPHE 106 M2M 71  ISTRES 0:57:01
446 OLLIER FLORIAN 476 SEM 162  ISTRES 0:57:02
447 RIOT CLAUDE 541 M4M 2  CS HISPANO SUIZA 0:57:04
448 CARRILLO MICHELLE 126 M1F 12  A VOS BASKETS ISTRES 0:57:06
449 CAMOIN THIERRY 112 M2M 72  MARTIGUES 0:57:07
450 BOITIAUX GUILLAUME 804 SEM 163  MIRAMAS 0:57:08
451 BLUER DAVID 1156 M3M 25  LYONDELL SPORT 0:57:11
452 CASTAGNEDE PASCAL 855 M1M 118  GMPA TEAM 0:57:12
453 AUDIBERT PHILIPPE 26 M1M 119  ENSUES LA REDONNE 0:57:13
454 MIRANBELL CHRISTOPHE 709 M1M 120  SPORT 2000 0:57:14
455 ADRIEN GUILLAUME 2 SEM 164  ISTRES 0:57:17
456 ESCOUBET ROMAIN 227 SEM 165  ISTRES 0:57:20
457 MARCHAND JEAN-CLAUDE 418 M3M 26  FOS SUR MER 0:57:26
458 LAHLIMI ZAKARIA 365 SEM 166  SALON DE PROVENCE 0:57:27
459 ARMAND FABRICE 22 SEM 167  ISTRES 0:57:28
460 THER ALEXANDRA 611 M1F 13  MIRAMAS 0:57:29
461 COIRIER DAMIEN 151 SEM 168  ISTRES 0:57:31
462 TYMRAKIEWICZ NICOLAS 627 M1M 121  LAPALUD 84 0:57:32
463 DEVLIEGHER VIRGIL 1139 M1M 122  SLC MARTIGUES 0:57:33
464 POGGIONOVO MICHEL 509 M2M 73  ISTRES 0:57:35
465 FLOC H MARC 247 M2M 74  COURIR A SAUSSET 0:57:37
466 DIAZ ARNAUD 880 M2M 75  ENTRESSEN 0:57:38
467 BERENGIER FRANCOIS 60 M2M 76  ST VICTORET 0:57:39
468 GAUTIER SOPHIE 272 M2F 10  VITROLLES 0:57:41
469 SPANO ERIC 595 M1M 123  SAUSSET LES PINS 0:57:42
470 NICOLAS AUDIBERT 901 SEM 169  FOS SUR MER 0:57:43
471 ZAOUNI LAURENCE 660 M2F 11  FOULEE PORT DE BOUC 0:57:44
472 SIMON SEBASTIEN 587 M1M 124  A VOS BASKETS ISTRES 0:57:46
473 VIDAL PIERRE 649 M1M 125  SC MARIGNANAIS 0:57:47
474 PESME ANGE 797 M2M 77  ISTRES 0:57:53
475 RAMAGE PASCAL 978 M1M 126  MIRAMAS 0:57:56
476 FIANDINO AURANELLA 245 M1F 14  NWA RUN ENSUES 0:57:57
477 BOISSON YOLANDE 74 M2F 12  EKIPANOU 0:58:02
478 ISNARD GUILLAUME 337 SEM 170  MIRAMAS 0:58:03
479 TANCREDI DONATO 602 SEM 171  VITROLLES 0:58:04
480 KNAB PIERRE 359 M3M 27  WILSHAUSEN 67 0:58:06
481 DOYEN AUDREY 3158 CAF 2  ST VICTORET 0:58:07
482 ANDRE MICHEL 11 M2M 78  RAPHEL TRAIL 0:58:09
483 RAKOTOMAHANINA SERGE 529 M1M 127  ST MARTIN DE CRAU 0:58:10
484 LAMBERT MICHEL 972 M3M 28  GRANS 0:58:11
485 GUILLEMAIN QUENTIN 313 JUM 6  ISTRES 0:58:12
486 CAILLAULT MATHIAS 107 ESM 11  ISTRES 0:58:14
487 HALE REMI 813 M2M 79  ISTRES 0:58:15
488 VINHAS CHARLES 750 M1M 128  ISTRES 0:58:17
489 EA KOK ENG 1154 M1M 129  MARIGNANE 0:58:19
490 GANOVELLI ANGELA 781 M2F 13  ISTRES 0:58:19
491 PORTAL ROMAIN 1090 ESM 12  MARTIGUES 0:58:22
492 LLOPIS SANDRA 395 M1F 15  MIRAMAS 0:58:24
493 MORINEAUX OLIVIER 454 M1M 130  MIRAMAS 0:58:27
494 RAHAL KARIM 1113 SEM 172  FOS SUR MER 0:58:28
495 APARICIO GILLES 16 SEM 173  CHATEAUNEUF LES M 0:58:30
496 TECHER CHRISTINA 878 F -  GMPA TEAM 0:58:33
497 CHIQUET FREDERIC 144 M1M 131  ISTRES 0:58:36
498 REBOUL NATHALIE 534 M2F 14  PHIDIPPID AIX 0:58:38
499 LOPEO EDMOND 955 M2M 80  COURIR A SAUSSET 0:58:40
500 DONADIO JEAN LOUIS 931 M3M 29  BSA 0:58:41
501 TERTRAIS SOPHIE 609 M1F 16  A VOS BASKETS ISTRES 0:58:42
502 GOMEZ LOUISA 292 M1F 17  FOULEE PORT DE BOUC 0:58:43
503 RIGOLET JEAN MARC 684 M1M 132  LECLERC ISTRES 0:58:45
504 DUARES LUDOVIC 681 SEM 174  LECLERC ISTRES 0:58:47
505 PIRAS CHRISTIAN 761 M2M 81  POMPIERS ISTRES 0:58:48
506 SERVELLERA THIERRY 718 M2M 82  CIQ TRIGANCE 0:58:50
507 BOUCHARD LAURENT 747 M1M 133  ISTRES 0:58:51
508 CARROUE MICHAEL 127 SEM 175  ISTRES 0:58:53
509 LACLUQUE JEAN PIERRE 1138 M1M 134  ISTRES 0:58:54
510 ZENBOUT LAURENT 866 SEM 176  FOS SUR MER 0:58:55
511 NARCISSE VINCENT 462 M1M 135  MARIGNANE 0:58:56
512 DUMONS JEAN PHILIPPE 730 SEM 177  ISTRES 0:58:57
513 LIABEUF SYLVAIN 392 SEM 178  MARTIGUES 0:58:58
514 DUMONTIER BERNARD 1097 M2M 83  SLC MARTIGUES 0:58:59
515 DOMINGUEZ CELINE 204 SEF 18  A VOS BASKETS ISTRES 0:59:01
516 LATIL YANN 850 M1M 136  GMPA TEAM 0:59:01
517 PAYET PHILIPPE 488 M1M 137  ISTRES 0:59:03
518 LEPORY LAURENT 1163 M1M 138  SAUSSET LES PINS 0:59:04
519 BERCOVICI CAMILLE 1101 SEF 19  SLC MARTIGUES 0:59:06
520 BEDOS CELINE 48 M1F 18  A VOS BASKETS ISTRES 0:59:06
521 MULA RENE 458 M3M 30  PORT DE BOUC 0:59:07
522 NOGUERA ANDRE 471 M3M 31  A VOS BASKETS ISTRES 0:59:09
523 GALLEGO PATRICIA 262 M1F 19  CHRONO LIBRE 0:59:10
524 MARROCCHELLI PIERRE 791 M2M 84  ISTRES 0:59:11
525 LARGE FANNY 371 SEF 20  ISTRES 0:59:13
526 CHALENDARD LIONEL 828 M1M 139  ISTRES 0:59:15
527 GRAS LAURENT 988 SEM 179  ENTRESSEN 0:59:16
528 STACHO PAUL 597 M3M 32  MARIGNANE 0:59:17
529 TURCO ROGER 625 M2M 85  JOGGEURS AUBAGNAIS 0:59:18
530 LACLUQUE DORIAN 1137 JUM 7  ISTRES 0:59:20
531 LILLO MYRIAM 393 M2F 15  FOS OLYMPIQUE CLUB 0:59:22
532 VIDAL ALAIN 729 M1M 140  ISTRES 0:59:23
533 LANDON MARC 370 M2M 86  A VOS BASKETS ISTRES 0:59:24
534 YALLIZIS MARITZA 658 M2F 16  FOS OLYMPIQUE CLUB 0:59:25
535 MADILE GERARD 737 M3M 33  ISTRES 0:59:27
536 DOMENGE ANTHONY 908 ESM 13  ISTRES 0:59:28
537 BAULU LAURENT 47 M2M 87  ISTRES 0:59:33
538 JOUVE PATRICK 891 M2M 88  FOULEE DE L OLIVIER 0:59:35
539 LANTELME CARINE 673 M1F 20  FREE NESS 0:59:38
540 TOURNIER ROMAIN 620 SEM 180  SLC PORT DE BOUC 0:59:40
541 DUPRE DENIS 1162 M1M 141  SAUSSET LES PINS 0:59:41
542 MERCKL EMMANUELLE 822 M1F 21  MARSEILLE 0:59:42
543 BELLIOT FANNY 960 SEF 21  INDIVIDUELLE 0:59:44
544 BARBERO ALEXANDRE 1147 SEM 181  FOS SUR MER 0:59:45
545 SOLER CLAUDE 592 M3M 34  OVS VARAGE 0:59:46
546 JARRE CHRISTOPHE 342 M1M 142  ISTRES 0:59:47
547 SERR DOMINIQUE 584 M2F 17  SEMELLES USEES ROGNAC 0:59:51
548 STAZZU CORINNE 598 M2F 18  CHRONO LIBRE 0:59:57
549 GAUNE PHILIPPE 269 M1M 143  CHRONO LIBRE 0:59:59
550 TRIPONNEY AURELIE 725 SEF 22  BOULANGERIE ANGE 1:00:02
551 CARTOUX CELIA 128 ESF 4  ISTRES 1:00:04
552 CORREIA CAROLE 160 M1F 22  BSA 1:00:05
553 BOULOT ISABELLE 883 M1F 23  LUNEL 1:00:07
554 DAO-CASTES BERNARD 174 M3M 35  COURIR A SAUSSET 1:00:08
555 GENDRY JEAN MICHEL 871 SEM 182  MARTIGUES 1:00:10
556 GAUTHIER MICHELE 795 M1F 24  MPT ISTRES 1:00:13
557 KROSZKA LUDOVIC 900 M1M 144  ISTRES 1:00:14
558 JIMENEZ RENE 347 M3M 36  ISTRES 1:00:15
559 THOMAE STEPHANE 820 M1M 145  ISTRES 1:00:17
560 SABARDEIL MARIE ASTRID 671 SEF 23  BOULANGERIE ANGE 1:00:18
561 PEINADO RAOUL 1108 M2M 89  MIRAMAS 1:00:20
562 PROIETTI LUDYVINE 846 SEF 24  GMPA TEAM 1:00:21
563 GINCOURT CYRIL 283 M1M 146  A VOS BASKETS ISTRES 1:00:22
564 DJEBARI MARC 200 M1M 147  LA BANDE A BRUNO 1:00:23
565 PERRIN JEAN PAUL 826 M4M 3  TRILION BELFORT 1:00:24
566 VANDEZANDE PATRICK 635 M3M 37  JOGG CLUB MARTIGUES 1:00:25
567 LAGUERRE FABRICE 363 M1M 148  ISTRES 1:00:29
568 DEBAUCHE CHRISTOPHE 181 M2M 90  LA BOUILLADISSE 1:00:32
569 GUERIN ERINEE 305 M2F 19  CSP CG 13 1:00:33
570 D AGUI FRANCOIS 170 M1M 149  MIRAMAS 1:00:34
571 SANCHEZ LAURENT 569 M1M 150  FOS OLYMPIQUE CLUB 1:00:37
572 LE CAMUS VIRGINIE 929 M1F 25  GRANS 1:00:39
573 DOLZA SYLVIE 758 SEF 25  ROGNAC 1:00:40
574 GIRAUD CLEMENT 288 JUM 8  ISTRES 1:00:41
575 FAIVRE PATRICK 230 M1M 151  DUTTLENHEIM 67 1:00:42
576 WEHRLE JEAN CLAUDE 653 M3M 38  FEGERSHEIM 67 1:00:43
577 BARRAL LIDIA 42 SEF 26  CARRY LE ROUET 1:00:45
578 LARBI TAYEB 3166 M2M 91  SC PAM 1:00:46
579 AVERSA NICOLAS 741 SEM 183  CARRY LE ROUET 1:00:47
580 VANDENBURIE NICOLAS 634 SEM 184  ISTRES 1:00:48
581 BAR VERONIQUE 739 M1F 26  CE ASCOMETAL 1:00:49
582 MINERAUD THOMAS 884 SEM 185  ISTRES 1:00:51
583 CHAUMEL PIERRE 141 M1M 152  ISTRES 1:00:52
584 POUPENEY LUCIEN 897 M3M 39  ISTRES 1:00:55
585 BARRIERE JEAN MICHEL 877 M1M 153  ISTRES 1:00:56
586 CALENDINI FREDERIC 796 M1M 154  GIGNAC LA NERTHE 1:00:57
587 DEFARIA DOMINGO 807 M1M 155  ENTRESSEN 1:00:58
588 LALOIX MARK 1149 SEM 186  ISTRES 1:00:59
589 HAMEL AUDE 320 SEF 27  ISTRES 1:01:01
590 AUBERT AUDE 1136 M1F 27  ISTRES SPORT TRIATH 1:01:02
591 DEFFOBIS LAETITIA 186 SEF 28  MIRAMAS 1:01:03
592 MUNOZ MARIE-PIERRE 459 M1F 28  FOS OLYMPIQUE CLUB 1:01:04
593 MATA CHRISTOPHE 427 SEM 187  ENTRESSEN 1:01:06
594 ALARCON GUY 5 M3M 40  ISTRES 1:01:07
595 MATHIEU RAPHAEL 429 M1M 156  MARTIGUES 1:01:09
596 DAUBROSSE OLIVIER 175 SEM 188  ISTRES 1:01:10
597 DE MARI CHRISTOPHE 178 M1M 157  ISTRES 1:01:12
598 SCHIRRA DELPHINE 580 M1F 29  MIRAMAS 1:01:13
599 KLOPFENSTEIN GUY 358 M2M 92  LINGOLSHEIM 67 1:01:15
600 TOUTAIN ROMAIN 1107 CAM 7  ISTRES 1:01:16
P 1 - P 2 - P 3 - P 4
 Recherchez un Nom, un Club, une catégorie ou un N° de Dossard :    

Vous disposez d'un droit d'accès, de modification, de rectification et de suppression des données qui vous concernent (art. 34 de la loi "Informatiques et libertés du 6 janvier 1978). Pour l'exercer, adressez vous à alain
 
Copyright © 1999-2019 Courir en France
Tous droits Réservés